Time;durP1;ratioP1;P1;durP2;ratioP2;P2;SDS_P1;SDS_P2;PMS_P1;PMS_P2;Temp;Humidity;BMP_temperature;BMP_pressure;BME280_temperature;BME280_humidity;BME280_pressure;Samples;Min_cycle;Max_cycle;Signal;HPM_P1;HPM_P2
2023/08/23 00:01:04;;;;;;;;;;;;;;;32.91;39.55;99915.56;4467023;32;34607;-79
2023/08/23 00:03:52;;;;;;;;;;;;;;;32.70;40.01;99912.94;4468136;32;33915;-80
2023/08/23 00:06:20;;;;;;;;;;;;;;;32.58;40.18;99908.09;4467061;32;32584;-81
2023/08/23 00:08:47;;;;;;;;;;;;;;;32.87;39.57;99892.50;4465307;32;33965;-81
2023/08/23 00:11:14;;;;;;;;;;;;;;;32.70;39.97;99896.84;4466085;32;34069;-79
2023/08/23 00:13:42;;;;;;;;;;;;;;;32.51;40.40;99893.22;4464941;32;34814;-82
2023/08/23 00:16:09;;;;;;;;;;;;;;;32.63;40.31;99884.63;4463076;32;33669;-82
2023/08/23 00:18:36;;;;;;;;;;;;;;;33.05;39.32;99891.66;4466306;32;34453;-80
2023/08/23 00:21:04;;;;;;;;;;;;;;;33.04;39.25;99887.22;4466877;32;32147;-81
2023/08/23 00:23:31;;;;;;;;;;;;;;;32.78;39.75;99887.56;4461804;32;34521;-79
2023/08/23 00:25:58;;;;;;;;;;;;;;;32.53;40.14;99880.59;4467365;32;33522;-81
2023/08/23 00:28:26;;;;;;;;;;;;;;;32.30;40.65;99882.50;4466381;32;34482;-79
2023/08/23 00:30:53;;;;;;;;;;;;;;;32.10;41.20;99879.78;4467638;32;34284;-80
2023/08/23 00:33:21;;;;;;;;;;;;;;;32.09;41.24;99886.09;4463978;32;35255;-80
2023/08/23 00:35:49;;;;;;;;;;;;;;;32.40;40.50;99882.09;4468534;32;33694;-80
2023/08/23 00:38:16;;;;;;;;;;;;;;;32.30;40.77;99877.13;4467904;32;34724;-79
2023/08/23 00:40:44;;;;;;;;;;;;;;;32.21;41.11;99874.84;4468206;32;33655;-80
2023/08/23 00:43:11;;;;;;;;;;;;;;;32.45;40.54;99872.91;4467798;32;34682;-82
2023/08/23 00:45:39;;;;;;;;;;;;;;;32.40;40.66;99871.37;4468165;32;33281;-81
2023/08/23 00:48:06;;;;;;;;;;;;;;;32.62;40.27;99872.16;4466931;32;33437;-79
2023/08/23 00:50:34;;;;;;;;;;;;;;;32.67;40.17;99872.81;4468139;32;33904;-80
2023/08/23 00:53:02;;;;;;;9.23;6.45;;;;;;;32.12;41.24;99872.56;4459727;32;34469;-80
2023/08/23 00:55:30;;;;;;;10.10;6.87;;;;;;;31.91;41.56;99871.63;4461417;32;33917;-79
2023/08/23 00:57:57;;;;;;;10.23;7.15;;;;;;;31.58;42.53;99866.75;4459989;32;32649;-81
2023/08/23 01:00:26;;;;;;;10.18;6.32;;;;;;;31.28;43.14;99869.69;4467221;32;33674;-81
2023/08/23 01:02:54;;;;;;;;;;;;;;;31.85;41.84;99869.22;4467693;32;34548;-81
2023/08/23 01:05:28;;;;;;;;;;;;;;;32.35;40.82;99865.31;4444219;32;34786;-79
2023/08/23 01:07:59;;;;;;;;;;;;;;;32.19;41.14;99866.00;4455795;32;34210;-79
2023/08/23 01:10:35;;;;;;;;;;;;;;;32.49;40.44;99865.56;4459118;32;34370;-80
2023/08/23 01:13:36;;;;;;;9.35;6.53;;;;;;;32.59;40.28;99864.28;4469389;32;34620;-81
2023/08/23 01:16:08;;;;;;;9.38;6.22;;;;;;;32.48;40.39;99863.84;4463166;32;34656;-81
2023/08/23 01:18:37;;;;;;;8.70;5.72;;;;;;;32.36;40.75;99861.72;4459155;32;34704;-82
2023/08/23 01:21:06;;;;;;;7.97;6.03;;;;;;;32.41;40.69;99857.00;4461437;32;34444;-79
2023/08/23 01:23:35;;;;;;;8.07;6.20;;;;;;;32.30;40.95;99866.41;4463597;32;34670;-82
2023/08/23 01:26:03;;;;;;;;;;;;;;;32.04;41.56;99863.97;4459875;32;34215;-81
2023/08/23 01:28:30;;;;;;;6.97;5.68;;;;;;;32.47;40.74;99864.78;4468387;32;34277;-81
2023/08/23 01:30:59;;;;;;;9.75;6.68;;;;;;;32.58;40.71;99862.50;4469325;32;34547;-80
2023/08/23 01:33:31;;;;;;;8.98;6.50;;;;;;;32.23;41.47;99875.62;4458504;32;34365;-82
2023/08/23 01:36:17;;;;;;;8.30;6.43;;;;;;;32.44;41.12;99872.97;4464582;32;33619;-82
2023/08/23 01:38:45;;;;;;;8.88;6.20;;;;;;;32.37;41.46;99866.13;4459017;32;33695;-81
2023/08/23 01:41:14;;;;;;;10.00;7.53;;;;;;;31.96;42.19;99874.13;4461587;32;33398;-81
2023/08/23 01:43:44;;;;;;;9.20;6.68;;;;;;;31.01;44.25;99868.97;4469299;32;34215;-80
2023/08/23 01:46:12;;;;;;;;;;;;;;;31.34;43.15;99869.44;4469259;32;34350;-79
2023/08/23 01:48:39;;;;;;;;;;;;;;;31.35;43.06;99875.66;4469326;32;34821;-81
2023/08/23 01:51:06;;;;;;;;;;;;;;;31.25;43.23;99874.28;4469408;32;33439;-79
2023/08/23 01:53:34;;;;;;;;;;;;;;;31.24;43.22;99872.56;4469237;32;34229;-79
2023/08/23 01:56:01;;;;;;;;;;;;;;;31.73;42.11;99866.09;4469519;32;33491;-81
2023/08/23 01:58:28;;;;;;;;;;;;;;;31.57;42.36;99859.66;4465965;32;34119;-80
2023/08/23 02:00:58;;;;;;;;;;;;;;;32.13;41.08;99853.72;4469362;32;35101;-80
2023/08/23 02:03:25;;;;;;;;;;;;;;;31.61;42.12;99865.75;4469058;32;34606;-81
2023/08/23 02:05:56;;;;;;;;;;;;;;;31.43;42.38;99865.53;4469460;32;33276;-79
2023/08/23 02:08:23;;;;;;;;;;;;;;;31.61;42.02;99858.59;4467342;32;34051;-79
2023/08/23 02:10:51;;;;;;;;;;;;;;;32.04;41.12;99855.94;4463739;32;35003;-82
2023/08/23 02:13:18;;;;;;;8.82;6.15;;;;;;;32.23;40.85;99851.53;4456909;32;34313;-81
2023/08/23 02:15:47;;;;;;;;;;;;;;;32.18;40.97;99845.50;4468003;32;34527;-81
2023/08/23 02:18:15;;;;;;;9.02;6.50;;;;;;;32.29;40.77;99837.84;4464497;32;34845;-81
2023/08/23 02:20:44;;;;;;;10.82;6.37;;;;;;;32.25;40.83;99833.56;4468076;32;33688;-80
2023/08/23 02:23:11;;;;;;;8.45;6.20;;;;;;;32.11;41.06;99833.31;4469487;32;34924;-81
2023/08/23 02:25:41;;;;;;;8.63;5.95;;;;;;;31.83;41.57;99834.44;4468584;32;33809;-82
2023/08/23 02:28:08;;;;;;;8.48;6.60;;;;;;;31.63;41.94;99839.78;4466909;32;32510;-79
2023/08/23 02:30:37;;;;;;;;;;;;;;;31.62;41.97;99838.03;4469228;32;33355;-79
2023/08/23 02:33:04;;;;;;;9.23;6.43;;;;;;;31.55;42.26;99838.28;4469129;32;34534;-80
2023/08/23 02:35:32;;;;;;;9.10;7.47;;;;;;;30.89;43.45;99829.31;4467079;32;33273;-80
2023/08/23 02:38:01;;;;;;;10.15;7.60;;;;;;;29.84;45.93;99825.03;4467723;32;33396;-79
2023/08/23 02:40:29;;;;;;;11.55;7.22;;;;;;;29.63;46.70;99825.72;4467523;32;33641;-79
2023/08/23 02:42:57;;;;;;;9.90;7.30;;;;;;;29.65;46.67;99829.22;4467267;32;34409;-81
2023/08/23 02:45:24;;;;;;;9.73;7.18;;;;;;;29.70;46.68;99835.28;4464021;32;33359;-79
2023/08/23 02:47:52;;;;;;;;;;;;;;;30.16;45.46;99833.72;4467821;32;33189;-80
2023/08/23 02:50:19;;;;;;;;;;;;;;;30.86;43.96;99834.75;4469142;32;33964;-80
2023/08/23 02:52:46;;;;;;;;;;;;;;;30.80;44.01;99829.66;4469175;32;34444;-81
2023/08/23 02:55:15;;;;;;;;;;;;;;;30.93;43.81;99836.31;4469136;32;33324;-81
2023/08/23 02:57:42;;;;;;;;;;;;;;;31.09;43.52;99832.09;4464383;32;35005;-79
2023/08/23 03:00:10;;;;;;;;;;;;;;;31.40;42.77;99836.22;4469390;32;34011;-79
2023/08/23 03:02:37;;;;;;;;;;;;;;;31.55;42.43;99840.97;4468791;32;34354;-80
2023/08/23 03:05:06;;;;;;;;;;;;;;;31.70;42.07;99839.47;4469605;32;33596;-82
2023/08/23 03:07:33;;;;;;;;;;;;;;;31.89;41.61;99836.91;4467590;32;34184;-82
2023/08/23 03:10:01;;;;;;;;;;;;;;;31.78;41.88;99833.78;4468615;32;34247;-81
2023/08/23 03:12:28;;;;;;;;;;;;;;;31.83;41.75;99831.78;4468976;32;34391;-80
2023/08/23 03:14:57;;;;;;;9.75;6.22;;;;;;;31.96;41.35;99839.31;4469554;32;34107;-82
2023/08/23 03:17:25;;;;;;;8.73;6.62;;;;;;;31.69;41.98;99843.06;4468413;32;33976;-81
2023/08/23 03:19:52;;;;;;;;;;;;;;;31.41;42.61;99848.69;4467405;32;34599;-82
2023/08/23 03:22:19;;;;;;;;;;;;;;;31.51;42.51;99839.34;4469567;32;34520;-79
2023/08/23 03:24:47;;;;;;;;;;;;;;;31.35;42.84;99843.53;4454603;32;32032;-79
2023/08/23 03:27:15;;;;;;;;;;;;;;;31.21;42.97;99840.56;4469568;32;34740;-79
2023/08/23 03:29:46;;;;;;;;;;;;;;;30.80;43.89;99835.88;4468932;32;34709;-80
2023/08/23 03:32:14;;;;;;;;;;;;;;;30.90;43.65;99836.41;4467473;32;34448;-80
2023/08/23 03:34:41;;;;;;;;;;;;;;;31.08;43.35;99835.72;4468657;32;34414;-81
2023/08/23 03:37:08;;;;;;;;;;;;;;;31.33;42.74;99830.25;4469648;32;33728;-82
2023/08/23 03:39:37;;;;;;;;;;;;;;;31.17;42.92;99829.97;4468670;32;34898;-82
2023/08/23 03:42:05;;;;;;;;;;;;;;;30.98;43.51;99834.31;4468453;32;34558;-81
2023/08/23 03:44:32;;;;;;;;;;;;;;;30.62;44.31;99826.75;4469072;32;32925;-79
2023/08/23 03:47:00;;;;;;;;;;;;;;;30.83;44.05;99834.88;4469135;32;34143;-80
2023/08/23 03:49:27;;;;;;;;;;;;;;;30.71;44.10;99839.78;4468649;32;35036;-79
2023/08/23 03:51:56;;;;;;;;;;;;;;;30.72;44.24;99832.63;4469185;32;34281;-79
2023/08/23 03:54:24;;;;;;;;;;;;;;;30.85;43.81;99839.25;4469339;32;34011;-79
2023/08/23 03:56:51;;;;;;;;;;;;;;;30.62;44.26;99836.53;4469243;32;34644;-80
2023/08/23 03:59:18;;;;;;;;;;;;;;;30.48;44.54;99834.37;4468866;32;34267;-82
2023/08/23 04:01:46;;;;;;;;;;;;;;;30.94;43.47;99833.53;4468457;32;34484;-81
2023/08/23 04:04:14;;;;;;;10.57;6.95;;;;;;;31.16;42.95;99833.59;4468716;32;33687;-80
2023/08/23 04:06:42;;;;;;;9.32;6.85;;;;;;;30.99;43.39;99830.72;4468825;32;34728;-80
2023/08/23 04:09:10;;;;;;;8.10;6.03;;;;;;;30.91;43.68;99835.50;4466987;32;34658;-81
2023/08/23 04:11:38;;;;;;;9.90;6.65;;;;;;;30.99;43.48;99836.06;4467744;32;34162;-80
2023/08/23 04:14:06;;;;;;;;;;;;;;;30.68;44.32;99831.84;4468255;32;33455;-80
2023/08/23 04:16:34;;;;;;;11.52;6.97;;;;;;;31.08;43.46;99825.00;4468296;32;35248;-79
2023/08/23 04:19:02;;;;;;;9.35;6.30;;;;;;;31.16;43.34;99822.91;4468422;32;33400;-81
2023/08/23 04:21:29;;;;;;;9.32;6.85;;;;;;;31.26;43.17;99822.53;4468528;32;34065;-80
2023/08/23 04:23:57;;;;;;;8.48;6.65;;;;;;;31.30;43.03;99813.44;4467942;32;33249;-79
2023/08/23 04:26:25;;;;;;;9.88;6.57;;;;;;;31.40;42.75;99812.13;4467181;32;33900;-80
2023/08/23 04:28:53;;;;;;;8.30;6.68;;;;;;;31.40;42.81;99814.78;4468255;32;33905;-81
2023/08/23 04:31:20;;;;;;;9.43;6.65;;;;;;;30.77;44.22;99812.78;4460077;32;33836;-80
2023/08/23 04:33:49;;;;;;;10.33;8.00;;;;;;;30.82;44.21;99817.09;4464456;32;34169;-79
2023/08/23 04:36:16;;;;;;;11.18;8.02;;;;;;;29.78;46.70;99806.56;4466808;32;33639;-81
2023/08/23 04:38:44;;;;;;;11.00;7.03;;;;;;;29.12;48.48;99814.88;4467558;32;34654;-80
2023/08/23 04:41:12;;;;;;;7.78;6.32;;;;;;;30.07;46.17;99812.69;4468520;32;33981;-79
2023/08/23 04:43:39;;;;;;;11.20;7.85;;;;;;;30.29;45.54;99810.09;4466388;32;33517;-80
2023/08/23 04:46:07;;;;;;;11.27;8.13;;;;;;;29.39;47.85;99814.94;4466655;32;33474;-81
2023/08/23 04:48:35;;;;;;;10.73;7.95;;;;;;;29.23;48.41;99814.56;4467095;32;34235;-80
2023/08/23 04:51:04;;;;;;;11.82;8.13;;;;;;;29.20;48.68;99826.19;4467306;32;34122;-80
2023/08/23 04:53:32;;;;;;;12.18;8.20;;;;;;;29.39;48.34;99821.13;4466017;32;34676;-80
2023/08/23 04:56:00;;;;;;;10.68;7.80;;;;;;;29.31;48.60;99827.66;4466763;32;34296;-81
2023/08/23 04:58:31;;;;;;;12.63;8.18;;;;;;;29.01;49.42;99822.31;4465167;32;34295;-79
2023/08/23 05:00:59;;;;;;;10.80;8.33;;;;;;;29.24;49.20;99826.09;4466928;32;32982;-79
2023/08/23 05:03:26;;;;;;;;;;;;;;;29.68;47.99;99824.66;4467104;32;34068;-81
2023/08/23 05:05:54;;;;;;;;;;;;;;;30.61;45.50;99819.63;4468158;32;34645;-81
2023/08/23 05:08:21;;;;;;;;;;;;;;;30.89;44.65;99823.97;4468414;32;33647;-79
2023/08/23 05:10:53;;;;;;;;;;;;;;;31.08;43.88;99822.34;4466767;32;35070;-81
2023/08/23 05:13:20;;;;;;;;;;;;;;;30.84;44.62;99820.56;4463889;32;33314;-79
2023/08/23 05:15:51;;;;;;;;;;;;;;;31.14;43.92;99816.72;4464821;32;34006;-80
2023/08/23 05:18:20;;;;;;;;;;;;;;;31.09;44.11;99816.03;4467668;32;33925;-79
2023/08/23 05:20:59;;;;;;;;;;;;;;;31.02;44.53;99809.19;4468258;32;34640;-79
2023/08/23 05:23:27;;;;;;;9.85;7.10;;;;;;;31.17;44.27;99811.25;4471937;32;33709;-82
2023/08/23 05:25:56;;;;;;;12.82;7.25;;;;;;;30.66;45.64;99820.34;4465046;32;34037;-79
2023/08/23 05:28:23;;;;;;;12.23;7.05;;;;;;;30.96;44.93;99821.00;4467780;32;34595;-80
2023/08/23 05:30:51;;;;;;;10.45;7.10;;;;;;;31.29;44.27;99823.28;4466476;32;33740;-80
2023/08/23 05:33:19;;;;;;;9.68;7.25;;;;;;;31.40;44.25;99820.16;4463507;32;34332;-81
2023/08/23 05:35:46;;;;;;;9.73;7.20;;;;;;;31.10;45.05;99822.25;4467685;32;33806;-81
2023/08/23 05:38:14;;;;;;;11.12;7.53;;;;;;;31.23;45.05;99823.50;4467450;32;33734;-82
2023/08/23 05:40:42;;;;;;;10.38;6.93;;;;;;;31.27;45.19;99822.44;4467913;32;33590;-81
2023/08/23 05:43:10;;;;;;;10.02;7.18;;;;;;;31.24;45.20;99824.41;4465905;32;33726;-79
2023/08/23 05:45:38;;;;;;;11.32;6.97;;;;;;;31.39;45.12;99825.56;4463936;32;33997;-79
2023/08/23 05:48:06;;;;;;;12.23;7.25;;;;;;;31.31;45.31;99817.84;4467008;32;34917;-81
2023/08/23 05:50:33;;;;;;;13.55;7.50;;;;;;;31.35;45.32;99827.47;4467058;32;34245;-79
2023/08/23 05:53:04;;;;;;;12.00;7.60;;;;;;;31.35;45.34;99827.47;4464925;32;33865;-81
2023/08/23 05:55:31;;;;;;;12.00;7.47;;;;;;;31.53;44.98;99832.13;4467945;32;34011;-81
2023/08/23 05:57:59;;;;;;;10.70;6.82;;;;;;;31.78;44.31;99825.75;4455203;32;34687;-80
2023/08/23 06:00:27;;;;;;;10.18;7.57;;;;;;;31.73;44.41;99822.41;4467802;32;33697;-80
2023/08/23 06:02:55;;;;;;;10.80;7.25;;;;;;;31.76;44.41;99822.28;4469322;32;34196;-79
2023/08/23 06:05:22;;;;;;;11.38;7.30;;;;;;;32.00;44.13;99822.16;4469397;32;34109;-81
2023/08/23 06:07:50;;;;;;;10.18;6.87;;;;;;;31.93;44.54;99819.75;4469578;32;33642;-79
2023/08/23 06:10:17;;;;;;;10.45;6.95;;;;;;;32.42;43.85;99815.88;4467791;32;34194;-81
2023/08/23 06:12:45;;;;;;;12.10;7.72;;;;;;;32.33;43.78;99822.50;4460938;32;33690;-79
2023/08/23 06:15:12;;;;;;;10.75;6.85;;;;;;;32.56;43.15;99824.16;4469631;32;33998;-81
2023/08/23 06:17:40;;;;;;;10.00;7.18;;;;;;;32.33;43.92;99818.00;4469191;32;33727;-79
2023/08/23 06:20:08;;;;;;;13.43;7.62;;;;;;;32.33;44.17;99820.69;4466803;32;33957;-79
2023/08/23 06:22:36;;;;;;;10.48;7.40;;;;;;;32.58;43.98;99822.28;4467909;32;34330;-80
2023/08/23 06:25:05;;;;;;;12.15;7.95;;;;;;;33.01;43.15;99819.41;4469372;32;33940;-80
2023/08/23 06:27:32;;;;;;;12.98;7.60;;;;;;;33.32;42.45;99820.63;4468008;32;33735;-80
2023/08/23 06:30:02;;;;;;;10.15;7.30;;;;;;;33.27;42.46;99820.88;4467270;32;34164;-79
2023/08/23 06:32:30;;;;;;;10.30;7.75;;;;;;;34.00;40.85;99826.22;4462601;32;32081;-80
2023/08/23 06:34:58;;;;;;;10.65;7.60;;;;;;;34.30;39.67;99828.25;4472659;32;33203;-78
2023/08/23 06:37:25;;;;;;;10.80;7.70;;;;;;;33.93;40.52;99832.84;4468678;32;34035;-79
2023/08/23 06:39:53;;;;;;;10.07;7.53;;;;;;;33.60;41.07;99829.06;4468818;32;34217;-78
2023/08/23 06:42:21;;;;;;;10.82;7.15;;;;;;;34.28;39.63;99831.88;4468543;32;33651;-80
2023/08/23 06:44:48;;;;;;;9.40;7.20;;;;;;;33.99;39.57;99828.00;4468838;32;33970;-80
2023/08/23 06:47:16;;;;;;;11.48;7.93;;;;;;;34.22;39.25;99832.22;4468236;32;33728;-79
2023/08/23 06:49:43;;;;;;;9.52;7.57;;;;;;;34.03;39.94;99831.41;4468484;32;35022;-79
2023/08/23 06:52:11;;;;;;;11.43;7.75;;;;;;;34.27;39.61;99830.16;4468772;32;32509;-81
2023/08/23 06:54:38;;;;;;;9.95;6.75;;;;;;;34.49;39.37;99838.91;4469353;32;34043;-82
2023/08/23 06:57:06;;;;;;;12.25;7.53;;;;;;;34.66;38.69;99838.88;4465406;32;33942;-81
2023/08/23 06:59:34;;;;;;;12.35;7.40;;;;;;;34.88;37.80;99843.09;4466175;32;35401;-81
2023/08/23 07:02:02;;;;;;;11.65;7.97;;;;;;;34.79;38.07;99839.06;4467645;32;33506;-79
2023/08/23 07:04:30;;;;;;;12.40;7.80;;;;;;;34.83;38.66;99843.34;4468787;32;33816;-81
2023/08/23 07:06:58;;;;;;;11.25;7.80;;;;;;;34.50;39.36;99846.91;4468337;32;34539;-79
2023/08/23 07:09:25;;;;;;;12.00;7.90;;;;;;;35.11;37.78;99842.66;4460942;32;34928;-81
2023/08/23 07:11:53;;;;;;;12.70;8.57;;;;;;;35.17;37.82;99841.47;4463829;32;33626;-79
2023/08/23 07:14:20;;;;;;;13.65;7.90;;;;;;;35.00;38.10;99843.28;4469343;32;33923;-79
2023/08/23 07:16:48;;;;;;;10.05;7.87;;;;;;;34.98;38.12;99841.63;4463543;32;33848;-80
2023/08/23 07:19:15;;;;;;;11.10;7.15;;;;;;;35.03;37.88;99840.41;4463395;32;33811;-80
2023/08/23 07:21:43;;;;;;;10.32;7.82;;;;;;;35.03;38.18;99845.78;4468641;32;33546;-78
2023/08/23 07:24:11;;;;;;;10.82;8.27;;;;;;;34.72;39.05;99845.75;4459935;32;33586;-80
2023/08/23 07:26:38;;;;;;;12.65;9.13;;;;;;;34.73;38.65;99842.09;4469089;32;33656;-79
2023/08/23 07:29:05;;;;;;;10.15;8.27;;;;;;;35.09;38.25;99849.09;4468925;32;34732;-78
2023/08/23 07:31:33;;;;;;;12.30;7.87;;;;;;;34.88;38.75;99860.09;4467106;32;33285;-78
2023/08/23 07:34:01;;;;;;;11.85;8.32;;;;;;;35.24;38.08;99864.41;4468339;32;33956;-81
2023/08/23 07:36:28;;;;;;;14.18;8.25;;;;;;;35.63;37.44;99872.03;4467958;32;34794;-81
2023/08/23 07:38:58;;;;;;;10.57;7.95;;;;;;;35.61;37.66;99865.84;4464867;32;34183;-81
2023/08/23 07:41:25;;;;;;;12.90;8.27;;;;;;;36.01;37.00;99868.06;4466277;32;33064;-80
2023/08/23 07:43:52;;;;;;;11.98;8.70;;;;;;;35.82;37.26;99871.84;4467003;32;34037;-80
2023/08/23 07:46:20;;;;;;;11.77;8.75;;;;;;;35.74;37.78;99870.59;4468493;32;34027;-79
2023/08/23 07:48:48;;;;;;;11.30;8.82;;;;;;;35.63;38.47;99860.38;4469032;32;34205;-79
2023/08/23 07:51:15;;;;;;;13.57;8.25;;;;;;;36.20;36.93;99871.44;4467940;32;34495;-79
2023/08/23 07:53:43;;;;;;;11.73;8.52;;;;;;;36.58;36.26;99870.00;4468177;32;33699;-80
2023/08/23 07:56:11;;;;;;;12.45;9.02;;;;;;;36.41;37.12;99865.66;4468699;32;32774;-79
2023/08/23 07:58:43;;;;;;;11.88;9.05;;;;;;;36.68;36.28;99865.81;4464658;32;33956;-80
2023/08/23 08:01:10;;;;;;;10.85;8.75;;;;;;;36.77;36.53;99864.37;4469130;32;34628;-79
2023/08/23 08:03:39;;;;;;;15.82;9.18;;;;;;;36.96;36.55;99867.62;4467702;32;34051;-80
2023/08/23 08:06:07;;;;;;;13.10;8.65;;;;;;;37.11;36.87;99868.47;4468311;32;33651;-79
2023/08/23 08:08:38;;;;;;;10.40;8.85;;;;;;;37.09;37.07;99865.03;4467962;32;33773;-79
2023/08/23 08:11:06;;;;;;;10.93;8.60;;;;;;;37.75;35.82;99873.38;4468241;32;34505;-80
2023/08/23 08:13:34;;;;;;;13.25;9.57;;;;;;;37.61;36.16;99860.78;4468834;32;33426;-80
2023/08/23 08:16:09;;;;;;;11.98;9.23;;;;;;;38.01;36.03;99868.03;4468851;32;34744;-80
2023/08/23 08:18:37;;;;;;;9.77;8.40;;;;;;;38.42;34.50;99870.59;4467346;32;35364;-80
2023/08/23 08:21:04;;;;;;;9.32;7.90;;;;;;;38.40;33.85;99863.53;4468401;32;33233;-80
2023/08/23 08:23:32;;;;;;;10.68;7.87;;;;;;;38.65;33.77;99857.28;4468464;32;33726;-79
2023/08/23 08:26:00;;;;;;;11.50;7.55;;;;;;;38.96;33.56;99861.34;4467600;32;34809;-81
2023/08/23 08:28:27;;;;;;;12.50;8.60;;;;;;;38.66;34.33;99859.03;4467174;32;34204;-80
2023/08/23 08:30:55;;;;;;;10.10;7.90;;;;;;;39.37;32.48;99853.88;4464648;32;34348;-79
2023/08/23 08:33:23;;;;;;;10.85;8.10;;;;;;;39.01;32.82;99858.34;4461205;32;34674;-81
2023/08/23 08:35:50;;;;;;;10.18;7.90;;;;;;;39.61;31.80;99857.50;4462561;32;33578;-81
2023/08/23 08:38:18;;;;;;;9.85;7.47;;;;;;;39.51;32.13;99856.47;4463478;32;34894;-81
2023/08/23 08:40:45;;;;;;;10.98;7.15;;;;;;;39.32;32.06;99856.97;4463429;32;33637;-78
2023/08/23 08:43:13;;;;;;;10.25;7.37;;;;;;;38.71;33.13;99852.31;4465691;32;33459;-81
2023/08/23 08:45:40;;;;;;;12.32;7.57;;;;;;;39.71;32.00;99858.53;4465605;32;33989;-80
2023/08/23 08:48:08;;;;;;;11.48;7.80;;;;;;;40.17;31.01;99864.16;4467092;32;33865;-79
2023/08/23 08:50:36;;;;;;;10.95;7.87;;;;;;;39.93;31.80;99867.78;4467770;32;34355;-79
2023/08/23 08:53:07;;;;;;;9.98;7.90;;;;;;;39.81;31.47;99871.37;4467951;32;33502;-81
2023/08/23 08:55:35;;;;;;;12.18;7.03;;;;;;;40.15;31.53;99868.84;4464508;32;33784;-79
2023/08/23 08:58:04;;;;;;;10.40;7.55;;;;;;;40.20;31.48;99863.91;4467888;32;35057;-81
2023/08/23 09:00:32;;;;;;;12.93;7.28;;;;;;;40.65;30.98;99858.56;4466055;32;34548;-81
2023/08/23 09:03:01;;;;;;;10.57;7.45;;;;;;;40.68;30.86;99858.31;4455952;32;32365;-79
2023/08/23 09:05:28;;;;;;;11.18;7.30;;;;;;;40.47;30.94;99861.78;4463096;32;33708;-79
2023/08/23 09:07:56;;;;;;;9.75;7.62;;;;;;;40.68;31.03;99855.59;4467440;32;34882;-82
2023/08/23 09:10:24;;;;;;;9.55;8.18;;;;;;;41.01;30.39;99854.75;4464279;32;33304;-81
2023/08/23 09:12:52;;;;;;;11.38;7.87;;;;;;;41.29;29.70;99857.94;4466837;32;33529;-81
2023/08/23 09:15:24;;;;;;;12.85;7.53;;;;;;;41.72;29.33;99862.50;4467382;32;33683;-81
2023/08/23 09:17:54;;;;;;;12.02;8.15;;;;;;;41.02;29.97;99863.78;4467381;32;34039;-79
2023/08/23 09:20:22;;;;;;;9.75;7.60;;;;;;;41.47;29.99;99863.69;4457650;32;34336;-80
2023/08/23 09:22:53;;;;;;;10.57;7.72;;;;;;;41.61;29.42;99871.59;4464707;32;33945;-80
2023/08/23 09:25:23;;;;;;;10.23;7.35;;;;;;;41.71;29.14;99870.81;4463453;32;33829;-82
2023/08/23 09:27:53;;;;;;;11.00;7.82;;;;;;;41.29;29.59;99865.25;4467145;32;34822;-80
2023/08/23 09:30:21;;;;;;;10.50;7.28;;;;;;;41.20;29.74;99865.00;4469246;32;33340;-79
2023/08/23 09:32:49;;;;;;;9.73;7.70;;;;;;;41.41;29.20;99858.78;4461241;32;34408;-80
2023/08/23 09:35:17;;;;;;;10.63;7.53;;;;;;;41.25;29.83;99862.75;4470213;32;34380;-81
2023/08/23 09:37:47;;;;;;;12.00;7.95;;;;;;;41.51;29.51;99859.72;4465761;32;34843;-79
2023/08/23 09:40:22;;;;;;;8.85;7.47;;;;;;;41.54;29.63;99851.31;4464500;32;33793;-80
2023/08/23 09:42:51;;;;;;;10.05;7.00;;;;;;;41.68;29.23;99846.59;4466529;32;33888;-82
2023/08/23 09:45:21;;;;;;;10.48;7.28;;;;;;;42.34;28.57;99852.66;4464403;32;33828;-79
2023/08/23 09:47:58;;;;;;;13.50;7.68;;;;;;;42.52;27.43;99847.50;4467685;32;34000;-81
2023/08/23 09:50:26;;;;;;;10.25;7.65;;;;;;;42.02;28.58;99844.56;4463220;32;33252;-80
2023/08/23 09:53:00;;;;;;;12.07;7.30;;;;;;;42.49;27.91;99849.66;4460875;32;33482;-79
2023/08/23 09:55:29;;;;;;;8.90;7.85;;;;;;;42.10;28.63;99852.09;4467982;32;33920;-78
2023/08/23 09:57:57;;;;;;;10.80;7.87;;;;;;;42.65;27.98;99841.81;4465624;32;83100;-81
2023/08/23 10:00:25;;;;;;;9.32;7.55;;;;;;;42.60;27.82;99844.09;4468791;32;33635;-81
2023/08/23 10:02:56;;;;;;;12.13;7.20;;;;;;;42.68;27.72;99847.00;4462490;32;34134;-81
2023/08/23 10:05:25;;;;;;;9.82;6.55;;;;;;;42.55;27.98;99851.81;4463428;32;33006;-81
2023/08/23 10:07:56;;;;;;;8.27;7.07;;;;;;;42.40;27.96;99852.16;4469511;32;34160;-80
2023/08/23 10:10:25;;;;;;;9.38;6.97;;;;;;;42.88;26.96;99852.56;4469091;32;34580;-80
2023/08/23 10:12:56;;;;;;;9.57;7.00;;;;;;;42.52;26.62;99833.91;4468969;32;33993;-80
2023/08/23 10:15:31;;;;;;;9.50;6.47;;;;;;;42.70;27.20;99839.56;4459134;32;33557;-80
2023/08/23 10:17:59;;;;;;;11.40;6.65;;;;;;;42.80;26.83;99829.53;4455381;32;34016;-81
2023/08/23 10:20:28;;;;;;;7.90;6.70;;;;;;;42.82;27.38;99835.72;4463812;32;34272;-79
2023/08/23 10:22:56;;;;;;;9.20;6.55;;;;;;;41.75;28.42;99842.38;4456310;32;33993;-81
2023/08/23 10:25:23;;;;;;;10.35;7.05;;;;;;;42.36;26.80;99834.37;4467439;32;34524;-81
2023/08/23 10:27:53;;;;;;;9.02;7.35;;;;;;;42.04;27.65;99838.03;4460696;32;33730;-78
2023/08/23 10:30:21;;;;;;;9.40;7.25;;;;;;;41.18;28.87;99828.88;4469035;32;33639;-82
2023/08/23 10:32:49;;;;;;;13.68;7.90;;;;;;;41.02;29.88;99833.87;4469448;32;33875;-78
2023/08/23 10:35:32;;;;;;;11.23;7.62;;;;;;;41.00;29.91;99830.44;4466859;32;33338;-80
2023/08/23 10:37:59;;;;;;;9.13;7.47;;;;;;;40.66;30.00;99833.13;4468175;32;34916;-79
2023/08/23 10:40:28;;;;;;;10.63;7.60;;;;;;;40.45;30.32;99824.84;4468466;32;33754;-80
2023/08/23 10:42:58;;;;;;;9.27;7.43;;;;;;;39.75;31.50;99826.63;4468557;32;34528;-80
2023/08/23 10:45:26;;;;;;;12.30;7.85;;;;;;;40.53;30.08;99830.56;4467473;32;33885;-81
2023/08/23 10:47:54;;;;;;;11.85;7.30;;;;;;;40.61;29.76;99825.37;4466522;32;34966;-82
2023/08/23 10:50:21;;;;;;;9.70;7.10;;;;;;;41.10;29.40;99820.53;4461377;32;34297;-82
2023/08/23 10:52:49;;;;;;;11.65;6.70;;;;;;;41.34;29.28;99816.78;4468313;32;34037;-80
2023/08/23 10:55:18;;;;;;;8.45;6.87;;;;;;;40.81;29.87;99818.34;4463657;32;33925;-83
2023/08/23 10:57:45;;;;;;;11.40;7.65;;;;;;;40.71;29.39;99811.91;4468671;32;34677;-80
2023/08/23 11:00:14;;;;;;;11.32;7.25;;;;;;;40.66;29.35;99817.72;4468960;32;33258;-80
2023/08/23 11:02:41;;;;;;;9.75;7.72;;;;;;;40.05;30.42;99809.87;4468786;32;33935;-81
2023/08/23 11:05:10;;;;;;;11.50;6.25;;;;;;;40.58;29.59;99819.31;4469031;32;33831;-82
2023/08/23 11:07:38;;;;;;;9.48;6.50;;;;;;;40.34;29.79;99812.16;4468940;32;34721;-80
2023/08/23 11:10:08;;;;;;;10.30;6.50;;;;;;;40.72;28.62;99810.94;4468694;32;33610;-77
2023/08/23 11:12:38;;;;;;;8.02;5.75;;;;;;;40.30;29.06;99805.22;4468261;32;33612;-86
2023/08/23 11:15:11;;;;;;;9.27;6.30;;;;;;;40.26;29.24;99822.72;4468760;32;33433;-81
2023/08/23 11:17:39;;;;;;;8.48;6.40;;;;;;;40.25;29.07;99819.13;4468816;32;34568;-81
2023/08/23 11:20:08;;;;;;;7.78;6.00;;;;;;;39.81;30.07;99817.16;4468681;32;33364;-81
2023/08/23 11:22:36;;;;;;;8.02;6.07;;;;;;;40.40;29.38;99811.66;4467673;32;33815;-82
2023/08/23 11:25:04;;;;;;;8.27;6.10;;;;;;;39.98;30.04;99814.03;4467720;32;34655;-80
2023/08/23 11:27:31;;;;;;;10.93;6.03;;;;;;;40.16;30.13;99813.56;4468906;32;34284;-80
2023/08/23 11:29:59;;;;;;;9.07;6.68;;;;;;;40.22;29.92;99807.66;4467936;32;33563;-80
2023/08/23 11:32:30;;;;;;;;;;;;;;;40.01;30.60;99811.09;4467622;32;33713;-81
2023/08/23 11:34:57;;;;;;;;;;;;;;;39.76;29.99;99801.25;4468820;32;33930;-82
2023/08/23 11:37:25;;;;;;;;;;;;;;;39.67;30.01;99802.81;4468997;32;34601;-80
2023/08/23 11:39:59;;;;;;;;;;;;;;;39.78;30.14;99801.13;4465940;32;33404;-82
2023/08/23 11:42:26;;;;;;;;;;;;;;;39.15;31.00;99801.31;4469064;32;33907;-82
2023/08/23 11:44:56;;;;;;;;;;;;;;;39.30;30.94;99808.28;4467746;32;34301;-81
2023/08/23 11:47:27;;;;;;;;;;;;;;;39.24;30.86;99797.91;4468961;32;33486;-80
2023/08/23 11:49:55;;;;;;;;;;;;;;;39.44;31.07;99807.28;4467366;32;34286;-80
2023/08/23 11:52:22;;;;;;;;;;;;;;;39.63;31.47;99806.75;4464271;32;32496;-80
2023/08/23 11:54:50;;;;;;;;;;;;;;;39.89;30.29;99807.50;4456727;32;34175;-81
2023/08/23 11:57:18;;;;;;;;;;;;;;;40.16;30.64;99802.72;4468357;32;34455;-81